sensor_id;sensor_type;location;lat;lon;timestamp;P1;durP1;ratioP1;P2;durP2;ratioP2
52480;SDS011;38393;52.404;13.532;2023-08-07T00:00:38;4.73;;;3.30;;
52480;SDS011;38393;52.404;13.532;2023-08-07T00:03:04;14.53;;;4.20;;
52480;SDS011;38393;52.404;13.532;2023-08-07T00:05:29;7.90;;;3.70;;
52480;SDS011;38393;52.404;13.532;2023-08-07T00:07:55;7.73;;;4.40;;
52480;SDS011;38393;52.404;13.532;2023-08-07T00:10:20;7.40;;;3.97;;
52480;SDS011;38393;52.404;13.532;2023-08-07T00:12:46;6.33;;;3.93;;
52480;SDS011;38393;52.404;13.532;2023-08-07T00:15:11;9.07;;;4.10;;
52480;SDS011;38393;52.404;13.532;2023-08-07T00:17:37;8.10;;;4.20;;
52480;SDS011;38393;52.404;13.532;2023-08-07T00:20:03;9.07;;;4.80;;
52480;SDS011;38393;52.404;13.532;2023-08-07T00:22:29;7.17;;;4.03;;
52480;SDS011;38393;52.404;13.532;2023-08-07T00:24:55;6.03;;;3.93;;
52480;SDS011;38393;52.404;13.532;2023-08-07T00:27:21;7.40;;;4.23;;
52480;SDS011;38393;52.404;13.532;2023-08-07T00:29:46;7.70;;;4.00;;
52480;SDS011;38393;52.404;13.532;2023-08-07T00:32:12;8.00;;;3.67;;
52480;SDS011;38393;52.404;13.532;2023-08-07T00:34:37;11.10;;;4.67;;
52480;SDS011;38393;52.404;13.532;2023-08-07T00:37:03;7.80;;;4.03;;
52480;SDS011;38393;52.404;13.532;2023-08-07T00:39:28;5.53;;;3.77;;
52480;SDS011;38393;52.404;13.532;2023-08-07T00:41:54;6.47;;;4.03;;
52480;SDS011;38393;52.404;13.532;2023-08-07T00:44:19;9.07;;;3.83;;
52480;SDS011;38393;52.404;13.532;2023-08-07T00:46:45;8.50;;;3.80;;
52480;SDS011;38393;52.404;13.532;2023-08-07T00:49:11;6.33;;;3.70;;
52480;SDS011;38393;52.404;13.532;2023-08-07T00:51:37;6.17;;;4.13;;
52480;SDS011;38393;52.404;13.532;2023-08-07T00:54:04;6.33;;;3.90;;
52480;SDS011;38393;52.404;13.532;2023-08-07T00:56:31;7.93;;;3.80;;
52480;SDS011;38393;52.404;13.532;2023-08-07T00:58:57;8.00;;;4.20;;
52480;SDS011;38393;52.404;13.532;2023-08-07T01:01:24;10.13;;;3.77;;
52480;SDS011;38393;52.404;13.532;2023-08-07T01:03:50;6.17;;;4.17;;
52480;SDS011;38393;52.404;13.532;2023-08-07T01:06:15;11.73;;;4.30;;
52480;SDS011;38393;52.404;13.532;2023-08-07T01:08:41;9.43;;;4.33;;
52480;SDS011;38393;52.404;13.532;2023-08-07T01:13:47;7.57;;;4.23;;
52480;SDS011;38393;52.404;13.532;2023-08-07T01:16:29;10.10;;;4.40;;
52480;SDS011;38393;52.404;13.532;2023-08-07T01:19:02;6.77;;;4.47;;
52480;SDS011;38393;52.404;13.532;2023-08-07T01:21:29;10.20;;;4.23;;
52480;SDS011;38393;52.404;13.532;2023-08-07T01:23:59;9.63;;;5.10;;
52480;SDS011;38393;52.404;13.532;2023-08-07T01:26:25;12.27;;;5.07;;
52480;SDS011;38393;52.404;13.532;2023-08-07T01:28:58;9.27;;;5.43;;
52480;SDS011;38393;52.404;13.532;2023-08-07T01:31:28;9.03;;;5.60;;
52480;SDS011;38393;52.404;13.532;2023-08-07T01:33:59;8.13;;;5.40;;
52480;SDS011;38393;52.404;13.532;2023-08-07T01:36:28;12.00;;;5.60;;
52480;SDS011;38393;52.404;13.532;2023-08-07T01:38:57;9.33;;;5.30;;
52480;SDS011;38393;52.404;13.532;2023-08-07T01:41:25;8.87;;;6.00;;
52480;SDS011;38393;52.404;13.532;2023-08-07T01:43:51;8.27;;;5.67;;
52480;SDS011;38393;52.404;13.532;2023-08-07T01:46:18;12.73;;;6.33;;
52480;SDS011;38393;52.404;13.532;2023-08-07T01:48:44;11.55;;;5.40;;
52480;SDS011;38393;52.404;13.532;2023-08-07T01:51:09;7.43;;;4.77;;
52480;SDS011;38393;52.404;13.532;2023-08-07T01:53:53;8.45;;;5.30;;
52480;SDS011;38393;52.404;13.532;2023-08-07T01:56:18;10.17;;;5.27;;
52480;SDS011;38393;52.404;13.532;2023-08-07T01:58:44;10.40;;;5.87;;
52480;SDS011;38393;52.404;13.532;2023-08-07T02:01:09;10.03;;;6.30;;
52480;SDS011;38393;52.404;13.532;2023-08-07T02:03:34;8.93;;;5.50;;
52480;SDS011;38393;52.404;13.532;2023-08-07T02:06:00;11.67;;;6.13;;
52480;SDS011;38393;52.404;13.532;2023-08-07T02:08:26;13.50;;;6.30;;
52480;SDS011;38393;52.404;13.532;2023-08-07T02:10:52;12.80;;;6.00;;
52480;SDS011;38393;52.404;13.532;2023-08-07T02:13:18;11.43;;;5.67;;
52480;SDS011;38393;52.404;13.532;2023-08-07T02:15:43;9.80;;;6.20;;
52480;SDS011;38393;52.404;13.532;2023-08-07T02:18:09;11.20;;;6.10;;
52480;SDS011;38393;52.404;13.532;2023-08-07T02:20:34;10.40;;;5.87;;
52480;SDS011;38393;52.404;13.532;2023-08-07T02:23:00;17.20;;;6.63;;
52480;SDS011;38393;52.404;13.532;2023-08-07T02:25:25;13.63;;;6.20;;
52480;SDS011;38393;52.404;13.532;2023-08-07T02:27:51;13.10;;;6.90;;
52480;SDS011;38393;52.404;13.532;2023-08-07T02:30:16;14.17;;;6.40;;
52480;SDS011;38393;52.404;13.532;2023-08-07T02:32:42;13.27;;;5.93;;
52480;SDS011;38393;52.404;13.532;2023-08-07T02:35:09;13.10;;;6.50;;
52480;SDS011;38393;52.404;13.532;2023-08-07T02:37:35;12.40;;;7.07;;
52480;SDS011;38393;52.404;13.532;2023-08-07T02:40:01;14.10;;;6.90;;
52480;SDS011;38393;52.404;13.532;2023-08-07T02:42:27;13.33;;;6.80;;
52480;SDS011;38393;52.404;13.532;2023-08-07T02:44:52;11.17;;;7.27;;
52480;SDS011;38393;52.404;13.532;2023-08-07T02:47:18;11.50;;;6.73;;
52480;SDS011;38393;52.404;13.532;2023-08-07T02:49:43;14.23;;;7.10;;
52480;SDS011;38393;52.404;13.532;2023-08-07T02:52:08;15.33;;;7.30;;
52480;SDS011;38393;52.404;13.532;2023-08-07T02:54:34;16.53;;;7.50;;
52480;SDS011;38393;52.404;13.532;2023-08-07T02:56:59;18.03;;;7.30;;
52480;SDS011;38393;52.404;13.532;2023-08-07T02:59:25;14.17;;;7.53;;
52480;SDS011;38393;52.404;13.532;2023-08-07T03:01:50;14.17;;;7.70;;
52480;SDS011;38393;52.404;13.532;2023-08-07T03:04:16;12.57;;;7.17;;
52480;SDS011;38393;52.404;13.532;2023-08-07T03:06:41;10.80;;;6.80;;
52480;SDS011;38393;52.404;13.532;2023-08-07T03:09:07;13.60;;;7.47;;
52480;SDS011;38393;52.404;13.532;2023-08-07T03:11:32;15.87;;;7.07;;
52480;SDS011;38393;52.404;13.532;2023-08-07T03:13:58;11.33;;;7.13;;
52480;SDS011;38393;52.404;13.532;2023-08-07T03:16:23;14.13;;;7.27;;
52480;SDS011;38393;52.404;13.532;2023-08-07T03:18:49;13.60;;;7.57;;
52480;SDS011;38393;52.404;13.532;2023-08-07T03:21:14;13.07;;;7.50;;
52480;SDS011;38393;52.404;13.532;2023-08-07T03:23:40;13.70;;;7.40;;
52480;SDS011;38393;52.404;13.532;2023-08-07T03:26:06;14.47;;;7.93;;
52480;SDS011;38393;52.404;13.532;2023-08-07T03:28:34;14.27;;;7.93;;
52480;SDS011;38393;52.404;13.532;2023-08-07T03:31:00;11.17;;;7.43;;
52480;SDS011;38393;52.404;13.532;2023-08-07T03:33:26;15.43;;;7.20;;
52480;SDS011;38393;52.404;13.532;2023-08-07T03:35:52;12.77;;;7.30;;
52480;SDS011;38393;52.404;13.532;2023-08-07T03:38:17;14.37;;;7.87;;
52480;SDS011;38393;52.404;13.532;2023-08-07T03:40:43;11.10;;;7.80;;
52480;SDS011;38393;52.404;13.532;2023-08-07T03:43:08;13.50;;;8.03;;
52480;SDS011;38393;52.404;13.532;2023-08-07T03:45:34;13.03;;;7.93;;
52480;SDS011;38393;52.404;13.532;2023-08-07T03:48:00;16.87;;;8.03;;
52480;SDS011;38393;52.404;13.532;2023-08-07T03:50:25;18.93;;;8.97;;
52480;SDS011;38393;52.404;13.532;2023-08-07T03:52:51;17.77;;;8.90;;
52480;SDS011;38393;52.404;13.532;2023-08-07T03:55:16;16.67;;;8.50;;
52480;SDS011;38393;52.404;13.532;2023-08-07T03:57:41;21.70;;;8.40;;
52480;SDS011;38393;52.404;13.532;2023-08-07T04:00:07;14.83;;;8.87;;
52480;SDS011;38393;52.404;13.532;2023-08-07T04:02:33;17.80;;;8.50;;
52480;SDS011;38393;52.404;13.532;2023-08-07T04:04:59;17.43;;;8.63;;
52480;SDS011;38393;52.404;13.532;2023-08-07T04:07:24;13.87;;;8.47;;
52480;SDS011;38393;52.404;13.532;2023-08-07T04:09:50;12.90;;;7.97;;
52480;SDS011;38393;52.404;13.532;2023-08-07T04:12:15;18.90;;;8.87;;
52480;SDS011;38393;52.404;13.532;2023-08-07T04:14:41;12.23;;;7.90;;
52480;SDS011;38393;52.404;13.532;2023-08-07T04:17:06;17.13;;;8.07;;
52480;SDS011;38393;52.404;13.532;2023-08-07T04:19:32;14.90;;;7.80;;
52480;SDS011;38393;52.404;13.532;2023-08-07T04:21:57;11.80;;;7.40;;
52480;SDS011;38393;52.404;13.532;2023-08-07T04:24:23;11.50;;;7.90;;
52480;SDS011;38393;52.404;13.532;2023-08-07T04:26:48;13.43;;;7.43;;
52480;SDS011;38393;52.404;13.532;2023-08-07T04:29:14;15.97;;;7.50;;
52480;SDS011;38393;52.404;13.532;2023-08-07T04:31:39;15.80;;;7.60;;
52480;SDS011;38393;52.404;13.532;2023-08-07T04:34:05;13.30;;;7.03;;
52480;SDS011;38393;52.404;13.532;2023-08-07T04:36:30;10.23;;;6.93;;
52480;SDS011;38393;52.404;13.532;2023-08-07T04:38:56;15.13;;;6.70;;
52480;SDS011;38393;52.404;13.532;2023-08-07T04:41:21;12.10;;;6.17;;
52480;SDS011;38393;52.404;13.532;2023-08-07T04:43:47;11.60;;;6.33;;
52480;SDS011;38393;52.404;13.532;2023-08-07T04:46:13;9.70;;;5.90;;
52480;SDS011;38393;52.404;13.532;2023-08-07T04:48:39;14.83;;;5.97;;
52480;SDS011;38393;52.404;13.532;2023-08-07T04:51:05;9.80;;;6.07;;
52480;SDS011;38393;52.404;13.532;2023-08-07T04:53:30;10.47;;;5.50;;
52480;SDS011;38393;52.404;13.532;2023-08-07T04:55:56;13.87;;;5.90;;
52480;SDS011;38393;52.404;13.532;2023-08-07T04:58:21;8.03;;;5.83;;
52480;SDS011;38393;52.404;13.532;2023-08-07T05:00:47;10.57;;;5.80;;
52480;SDS011;38393;52.404;13.532;2023-08-07T05:03:12;11.60;;;5.33;;
52480;SDS011;38393;52.404;13.532;2023-08-07T05:05:40;11.17;;;5.17;;
52480;SDS011;38393;52.404;13.532;2023-08-07T05:08:05;6.63;;;4.97;;
52480;SDS011;38393;52.404;13.532;2023-08-07T05:10:31;9.55;;;5.28;;
52480;SDS011;38393;52.404;13.532;2023-08-07T05:12:56;10.70;;;4.70;;
52480;SDS011;38393;52.404;13.532;2023-08-07T05:15:22;8.40;;;5.05;;
52480;SDS011;38393;52.404;13.532;2023-08-07T05:17:49;10.90;;;4.80;;
52480;SDS011;38393;52.404;13.532;2023-08-07T05:20:15;11.48;;;5.05;;
52480;SDS011;38393;52.404;13.532;2023-08-07T05:22:42;8.27;;;5.50;;
52480;SDS011;38393;52.404;13.532;2023-08-07T05:25:08;8.53;;;4.80;;
52480;SDS011;38393;52.404;13.532;2023-08-07T05:27:34;10.10;;;4.83;;
52480;SDS011;38393;52.404;13.532;2023-08-07T05:30:00;7.63;;;4.70;;
52480;SDS011;38393;52.404;13.532;2023-08-07T05:32:25;11.63;;;5.23;;
52480;SDS011;38393;52.404;13.532;2023-08-07T05:34:51;8.47;;;4.60;;
52480;SDS011;38393;52.404;13.532;2023-08-07T05:37:16;8.43;;;4.30;;
52480;SDS011;38393;52.404;13.532;2023-08-07T05:39:42;7.20;;;4.20;;
52480;SDS011;38393;52.404;13.532;2023-08-07T05:42:07;7.23;;;4.30;;
52480;SDS011;38393;52.404;13.532;2023-08-07T05:44:35;12.20;;;4.00;;
52480;SDS011;38393;52.404;13.532;2023-08-07T05:47:00;5.28;;;3.90;;
52480;SDS011;38393;52.404;13.532;2023-08-07T05:49:25;7.13;;;4.07;;
52480;SDS011;38393;52.404;13.532;2023-08-07T05:51:51;6.70;;;4.30;;
52480;SDS011;38393;52.404;13.532;2023-08-07T05:54:16;9.52;;;4.20;;
52480;SDS011;38393;52.404;13.532;2023-08-07T05:56:42;8.13;;;4.40;;
52480;SDS011;38393;52.404;13.532;2023-08-07T05:59:08;9.70;;;4.40;;
52480;SDS011;38393;52.404;13.532;2023-08-07T06:01:33;6.63;;;4.20;;
52480;SDS011;38393;52.404;13.532;2023-08-07T06:03:59;7.65;;;4.10;;
52480;SDS011;38393;52.404;13.532;2023-08-07T06:06:25;7.55;;;4.20;;
52480;SDS011;38393;52.404;13.532;2023-08-07T06:08:52;8.55;;;3.97;;
52480;SDS011;38393;52.404;13.532;2023-08-07T06:11:18;6.90;;;4.07;;
52480;SDS011;38393;52.404;13.532;2023-08-07T06:13:44;8.30;;;4.10;;
52480;SDS011;38393;52.404;13.532;2023-08-07T06:16:09;7.47;;;3.90;;
52480;SDS011;38393;52.404;13.532;2023-08-07T06:18:35;8.13;;;4.10;;
52480;SDS011;38393;52.404;13.532;2023-08-07T06:21:01;6.63;;;3.63;;
52480;SDS011;38393;52.404;13.532;2023-08-07T06:23:28;7.10;;;3.87;;
52480;SDS011;38393;52.404;13.532;2023-08-07T06:25:54;6.43;;;3.73;;
52480;SDS011;38393;52.404;13.532;2023-08-07T06:28:20;7.10;;;3.67;;
52480;SDS011;38393;52.404;13.532;2023-08-07T06:30:46;5.40;;;3.60;;
52480;SDS011;38393;52.404;13.532;2023-08-07T06:33:11;7.73;;;3.30;;
52480;SDS011;38393;52.404;13.532;2023-08-07T06:35:37;5.03;;;3.80;;
52480;SDS011;38393;52.404;13.532;2023-08-07T06:38:04;7.75;;;3.22;;
52480;SDS011;38393;52.404;13.532;2023-08-07T06:40:29;7.97;;;3.53;;
52480;SDS011;38393;52.404;13.532;2023-08-07T06:42:55;7.93;;;3.17;;
52480;SDS011;38393;52.404;13.532;2023-08-07T06:45:20;5.45;;;2.85;;
52480;SDS011;38393;52.404;13.532;2023-08-07T06:47:46;7.63;;;3.10;;
52480;SDS011;38393;52.404;13.532;2023-08-07T06:50:12;5.78;;;3.10;;
52480;SDS011;38393;52.404;13.532;2023-08-07T06:52:38;4.03;;;2.80;;
52480;SDS011;38393;52.404;13.532;2023-08-07T06:55:04;5.75;;;2.70;;
52480;SDS011;38393;52.404;13.532;2023-08-07T06:57:30;4.90;;;2.75;;
52480;SDS011;38393;52.404;13.532;2023-08-07T06:59:55;4.75;;;2.72;;
52480;SDS011;38393;52.404;13.532;2023-08-07T07:02:21;5.78;;;2.50;;
52480;SDS011;38393;52.404;13.532;2023-08-07T07:04:46;6.72;;;2.50;;
52480;SDS011;38393;52.404;13.532;2023-08-07T07:07:12;6.85;;;2.60;;
52480;SDS011;38393;52.404;13.532;2023-08-07T07:09:37;4.00;;;2.42;;
52480;SDS011;38393;52.404;13.532;2023-08-07T07:12:03;6.07;;;2.80;;
52480;SDS011;38393;52.404;13.532;2023-08-07T07:14:28;8.55;;;2.60;;
52480;SDS011;38393;52.404;13.532;2023-08-07T07:16:54;5.00;;;2.20;;
52480;SDS011;38393;52.404;13.532;2023-08-07T07:19:19;4.35;;;2.40;;
52480;SDS011;38393;52.404;13.532;2023-08-07T07:21:45;6.82;;;2.60;;
52480;SDS011;38393;52.404;13.532;2023-08-07T07:24:10;5.65;;;2.70;;
52480;SDS011;38393;52.404;13.532;2023-08-07T07:26:36;3.58;;;2.22;;
52480;SDS011;38393;52.404;13.532;2023-08-07T07:29:01;4.22;;;2.50;;
52480;SDS011;38393;52.404;13.532;2023-08-07T07:31:27;4.05;;;2.55;;
52480;SDS011;38393;52.404;13.532;2023-08-07T07:33:52;3.80;;;2.20;;
52480;SDS011;38393;52.404;13.532;2023-08-07T07:36:18;4.88;;;2.30;;
52480;SDS011;38393;52.404;13.532;2023-08-07T07:38:45;5.78;;;2.30;;
52480;SDS011;38393;52.404;13.532;2023-08-07T07:41:11;8.50;;;2.30;;
52480;SDS011;38393;52.404;13.532;2023-08-07T07:43:37;5.07;;;2.47;;
52480;SDS011;38393;52.404;13.532;2023-08-07T07:46:03;6.53;;;2.28;;
52480;SDS011;38393;52.404;13.532;2023-08-07T07:48:29;3.83;;;2.20;;
52480;SDS011;38393;52.404;13.532;2023-08-07T07:50:58;6.20;;;2.40;;
52480;SDS011;38393;52.404;13.532;2023-08-07T07:53:27;3.83;;;2.40;;
52480;SDS011;38393;52.404;13.532;2023-08-07T07:55:52;6.15;;;2.30;;
52480;SDS011;38393;52.404;13.532;2023-08-07T07:58:19;3.38;;;2.25;;
52480;SDS011;38393;52.404;13.532;2023-08-07T08:00:45;2.97;;;2.30;;
52480;SDS011;38393;52.404;13.532;2023-08-07T08:03:10;4.25;;;1.77;;
52480;SDS011;38393;52.404;13.532;2023-08-07T08:05:37;5.97;;;1.95;;
52480;SDS011;38393;52.404;13.532;2023-08-07T08:08:02;3.50;;;2.10;;
52480;SDS011;38393;52.404;13.532;2023-08-07T08:10:28;5.15;;;2.10;;
52480;SDS011;38393;52.404;13.532;2023-08-07T08:12:56;4.63;;;2.30;;
52480;SDS011;38393;52.404;13.532;2023-08-07T08:15:22;7.15;;;2.42;;
52480;SDS011;38393;52.404;13.532;2023-08-07T08:17:48;3.22;;;2.20;;
52480;SDS011;38393;52.404;13.532;2023-08-07T08:20:13;5.68;;;2.50;;
52480;SDS011;38393;52.404;13.532;2023-08-07T08:22:43;5.15;;;2.60;;
52480;SDS011;38393;52.404;13.532;2023-08-07T08:25:09;7.13;;;2.30;;
52480;SDS011;38393;52.404;13.532;2023-08-07T08:27:36;3.92;;;2.40;;
52480;SDS011;38393;52.404;13.532;2023-08-07T08:30:05;7.03;;;2.60;;
52480;SDS011;38393;52.404;13.532;2023-08-07T08:32:31;4.32;;;2.38;;
52480;SDS011;38393;52.404;13.532;2023-08-07T08:34:57;7.55;;;2.80;;
52480;SDS011;38393;52.404;13.532;2023-08-07T08:37:22;5.65;;;2.60;;
52480;SDS011;38393;52.404;13.532;2023-08-07T08:39:48;6.22;;;2.63;;
52480;SDS011;38393;52.404;13.532;2023-08-07T08:42:14;6.90;;;2.92;;
52480;SDS011;38393;52.404;13.532;2023-08-07T08:44:43;3.95;;;2.88;;
52480;SDS011;38393;52.404;13.532;2023-08-07T08:47:13;6.22;;;2.63;;
52480;SDS011;38393;52.404;13.532;2023-08-07T08:49:47;3.85;;;2.70;;
52480;SDS011;38393;52.404;13.532;2023-08-07T08:52:19;4.25;;;2.72;;
52480;SDS011;38393;52.404;13.532;2023-08-07T08:54:46;4.50;;;2.75;;
52480;SDS011;38393;52.404;13.532;2023-08-07T08:57:21;3.72;;;2.30;;
52480;SDS011;38393;52.404;13.532;2023-08-07T08:59:47;7.10;;;2.67;;
52480;SDS011;38393;52.404;13.532;2023-08-07T09:02:14;4.75;;;2.67;;
52480;SDS011;38393;52.404;13.532;2023-08-07T09:04:40;5.40;;;3.13;;
52480;SDS011;38393;52.404;13.532;2023-08-07T09:07:07;3.95;;;2.65;;
52480;SDS011;38393;52.404;13.532;2023-08-07T09:09:32;3.47;;;2.75;;
52480;SDS011;38393;52.404;13.532;2023-08-07T09:11:58;5.75;;;3.00;;
52480;SDS011;38393;52.404;13.532;2023-08-07T09:14:26;6.15;;;3.42;;
52480;SDS011;38393;52.404;13.532;2023-08-07T09:16:55;4.60;;;3.10;;
52480;SDS011;38393;52.404;13.532;2023-08-07T09:19:25;5.03;;;2.70;;
52480;SDS011;38393;52.404;13.532;2023-08-07T09:21:51;5.75;;;3.03;;
52480;SDS011;38393;52.404;13.532;2023-08-07T09:24:16;6.82;;;3.22;;
52480;SDS011;38393;52.404;13.532;2023-08-07T09:26:43;5.18;;;2.92;;
52480;SDS011;38393;52.404;13.532;2023-08-07T09:29:09;8.20;;;3.70;;
52480;SDS011;38393;52.404;13.532;2023-08-07T09:31:36;7.13;;;4.10;;
52480;SDS011;38393;52.404;13.532;2023-08-07T09:34:02;6.00;;;3.88;;
52480;SDS011;38393;52.404;13.532;2023-08-07T09:36:30;12.65;;;4.45;;
52480;SDS011;38393;52.404;13.532;2023-08-07T09:38:56;8.95;;;4.13;;
52480;SDS011;38393;52.404;13.532;2023-08-07T09:41:26;12.63;;;3.58;;
52480;SDS011;38393;52.404;13.532;2023-08-07T09:43:53;7.28;;;3.58;;
52480;SDS011;38393;52.404;13.532;2023-08-07T09:46:19;3.88;;;3.40;;
52480;SDS011;38393;52.404;13.532;2023-08-07T09:48:44;5.80;;;3.45;;
52480;SDS011;38393;52.404;13.532;2023-08-07T09:51:10;6.28;;;2.75;;
52480;SDS011;38393;52.404;13.532;2023-08-07T09:53:36;5.70;;;3.28;;
52480;SDS011;38393;52.404;13.532;2023-08-07T09:56:02;5.55;;;2.63;;
52480;SDS011;38393;52.404;13.532;2023-08-07T09:58:28;8.90;;;2.70;;
52480;SDS011;38393;52.404;13.532;2023-08-07T10:00:53;5.90;;;2.50;;
52480;SDS011;38393;52.404;13.532;2023-08-07T10:03:21;4.13;;;2.33;;
52480;SDS011;38393;52.404;13.532;2023-08-07T10:05:47;4.05;;;2.10;;
52480;SDS011;38393;52.404;13.532;2023-08-07T10:08:13;8.07;;;2.00;;
52480;SDS011;38393;52.404;13.532;2023-08-07T10:10:38;3.95;;;2.08;;
52480;SDS011;38393;52.404;13.532;2023-08-07T10:13:04;5.60;;;2.00;;
52480;SDS011;38393;52.404;13.532;2023-08-07T10:15:31;5.63;;;2.22;;
52480;SDS011;38393;52.404;13.532;2023-08-07T10:17:57;4.65;;;2.13;;
52480;SDS011;38393;52.404;13.532;2023-08-07T10:20:24;3.78;;;1.83;;
52480;SDS011;38393;52.404;13.532;2023-08-07T10:22:52;4.65;;;1.73;;
52480;SDS011;38393;52.404;13.532;2023-08-07T10:25:20;4.63;;;1.73;;
52480;SDS011;38393;52.404;13.532;2023-08-07T10:27:47;4.80;;;1.88;;
52480;SDS011;38393;52.404;13.532;2023-08-07T10:30:17;3.00;;;1.67;;
52480;SDS011;38393;52.404;13.532;2023-08-07T10:32:44;4.15;;;2.08;;
52480;SDS011;38393;52.404;13.532;2023-08-07T10:35:23;3.05;;;1.55;;
52480;SDS011;38393;52.404;13.532;2023-08-07T10:37:50;3.75;;;2.10;;
52480;SDS011;38393;52.404;13.532;2023-08-07T10:40:16;3.67;;;1.92;;
52480;SDS011;38393;52.404;13.532;2023-08-07T10:45:24;4.70;;;1.80;;
52480;SDS011;38393;52.404;13.532;2023-08-07T10:48:05;4.57;;;2.13;;
52480;SDS011;38393;52.404;13.532;2023-08-07T10:50:48;2.28;;;1.67;;
52480;SDS011;38393;52.404;13.532;2023-08-07T10:55:59;4.47;;;2.03;;
52480;SDS011;38393;52.404;13.532;2023-08-07T10:58:33;4.68;;;1.77;;
52480;SDS011;38393;52.404;13.532;2023-08-07T11:03:57;2.70;;;1.65;;
52480;SDS011;38393;52.404;13.532;2023-08-07T11:08:51;2.45;;;1.52;;
52480;SDS011;38393;52.404;13.532;2023-08-07T11:11:17;2.65;;;1.60;;
52480;SDS011;38393;52.404;13.532;2023-08-07T11:13:42;3.33;;;1.42;;
52480;SDS011;38393;52.404;13.532;2023-08-07T11:16:08;5.63;;;1.65;;
52480;SDS011;38393;52.404;13.532;2023-08-07T11:18:34;4.07;;;1.55;;
52480;SDS011;38393;52.404;13.532;2023-08-07T11:21:06;4.35;;;1.50;;
52480;SDS011;38393;52.404;13.532;2023-08-07T11:23:32;2.63;;;1.60;;
52480;SDS011;38393;52.404;13.532;2023-08-07T11:25:58;5.82;;;1.60;;
52480;SDS011;38393;52.404;13.532;2023-08-07T11:28:23;4.68;;;1.67;;
52480;SDS011;38393;52.404;13.532;2023-08-07T11:30:52;2.45;;;1.45;;
52480;SDS011;38393;52.404;13.532;2023-08-07T11:33:18;2.13;;;1.50;;
52480;SDS011;38393;52.404;13.532;2023-08-07T11:35:45;3.10;;;1.80;;
52480;SDS011;38393;52.404;13.532;2023-08-07T11:38:11;6.00;;;1.45;;
52480;SDS011;38393;52.404;13.532;2023-08-07T11:40:36;4.90;;;1.80;;
52480;SDS011;38393;52.404;13.532;2023-08-07T11:43:02;7.45;;;2.05;;
52480;SDS011;38393;52.404;13.532;2023-08-07T11:45:28;3.33;;;1.67;;
52480;SDS011;38393;52.404;13.532;2023-08-07T11:47:53;6.47;;;1.85;;
52480;SDS011;38393;52.404;13.532;2023-08-07T11:50:21;2.53;;;1.60;;
52480;SDS011;38393;52.404;13.532;2023-08-07T11:52:47;3.03;;;1.85;;
52480;SDS011;38393;52.404;13.532;2023-08-07T11:55:14;4.15;;;1.77;;
52480;SDS011;38393;52.404;13.532;2023-08-07T11:57:39;2.33;;;1.80;;
52480;SDS011;38393;52.404;13.532;2023-08-07T12:00:07;3.85;;;1.65;;
52480;SDS011;38393;52.404;13.532;2023-08-07T12:02:38;9.02;;;2.20;;
52480;SDS011;38393;52.404;13.532;2023-08-07T12:05:08;3.92;;;1.80;;
52480;SDS011;38393;52.404;13.532;2023-08-07T12:07:35;7.38;;;2.00;;
52480;SDS011;38393;52.404;13.532;2023-08-07T12:10:03;3.78;;;1.75;;
52480;SDS011;38393;52.404;13.532;2023-08-07T12:12:35;3.42;;;1.95;;
52480;SDS011;38393;52.404;13.532;2023-08-07T12:15:02;5.63;;;1.77;;
52480;SDS011;38393;52.404;13.532;2023-08-07T12:17:31;3.15;;;1.85;;
52480;SDS011;38393;52.404;13.532;2023-08-07T12:19:57;3.65;;;1.80;;
52480;SDS011;38393;52.404;13.532;2023-08-07T12:22:23;4.22;;;1.80;;
52480;SDS011;38393;52.404;13.532;2023-08-07T12:24:51;3.63;;;1.65;;
52480;SDS011;38393;52.404;13.532;2023-08-07T12:27:17;3.60;;;1.80;;
52480;SDS011;38393;52.404;13.532;2023-08-07T12:29:43;5.47;;;1.90;;
52480;SDS011;38393;52.404;13.532;2023-08-07T12:32:08;3.30;;;1.70;;
52480;SDS011;38393;52.404;13.532;2023-08-07T12:34:34;3.15;;;1.63;;
52480;SDS011;38393;52.404;13.532;2023-08-07T12:37:01;4.88;;;1.83;;
52480;SDS011;38393;52.404;13.532;2023-08-07T12:39:26;3.80;;;1.70;;
52480;SDS011;38393;52.404;13.532;2023-08-07T12:41:51;6.97;;;1.80;;
52480;SDS011;38393;52.404;13.532;2023-08-07T12:44:17;3.55;;;1.75;;
52480;SDS011;38393;52.404;13.532;2023-08-07T12:46:42;3.25;;;1.80;;
52480;SDS011;38393;52.404;13.532;2023-08-07T12:49:08;4.40;;;1.80;;
52480;SDS011;38393;52.404;13.532;2023-08-07T12:51:34;3.28;;;1.55;;
52480;SDS011;38393;52.404;13.532;2023-08-07T12:54:00;4.40;;;1.65;;
52480;SDS011;38393;52.404;13.532;2023-08-07T12:56:25;4.95;;;1.38;;
52480;SDS011;38393;52.404;13.532;2023-08-07T12:58:50;3.65;;;1.40;;
52480;SDS011;38393;52.404;13.532;2023-08-07T13:01:16;3.15;;;1.30;;
52480;SDS011;38393;52.404;13.532;2023-08-07T13:03:41;3.95;;;1.40;;
52480;SDS011;38393;52.404;13.532;2023-08-07T13:06:07;5.03;;;1.40;;
52480;SDS011;38393;52.404;13.532;2023-08-07T13:08:33;8.27;;;1.13;;
52480;SDS011;38393;52.404;13.532;2023-08-07T13:11:00;5.13;;;1.38;;
52480;SDS011;38393;52.404;13.532;2023-08-07T13:13:26;5.03;;;1.23;;
52480;SDS011;38393;52.404;13.532;2023-08-07T13:15:53;6.28;;;1.35;;
52480;SDS011;38393;52.404;13.532;2023-08-07T13:18:18;4.13;;;1.63;;
52480;SDS011;38393;52.404;13.532;2023-08-07T13:20:44;4.05;;;1.80;;
52480;SDS011;38393;52.404;13.532;2023-08-07T13:23:10;4.85;;;2.00;;
52480;SDS011;38393;52.404;13.532;2023-08-07T13:25:37;4.63;;;1.80;;
52480;SDS011;38393;52.404;13.532;2023-08-07T13:28:02;6.28;;;1.70;;
52480;SDS011;38393;52.404;13.532;2023-08-07T13:30:31;6.03;;;1.80;;
52480;SDS011;38393;52.404;13.532;2023-08-07T13:33:00;6.13;;;2.03;;
52480;SDS011;38393;52.404;13.532;2023-08-07T13:35:25;3.92;;;1.92;;
52480;SDS011;38393;52.404;13.532;2023-08-07T13:37:51;5.07;;;2.00;;
52480;SDS011;38393;52.404;13.532;2023-08-07T13:40:17;7.40;;;2.10;;
52480;SDS011;38393;52.404;13.532;2023-08-07T13:42:43;6.43;;;2.15;;
52480;SDS011;38393;52.404;13.532;2023-08-07T13:45:09;8.15;;;2.00;;
52480;SDS011;38393;52.404;13.532;2023-08-07T13:47:35;5.70;;;2.10;;
52480;SDS011;38393;52.404;13.532;2023-08-07T13:50:01;6.90;;;2.20;;
52480;SDS011;38393;52.404;13.532;2023-08-07T13:52:27;9.60;;;2.53;;
52480;SDS011;38393;52.404;13.532;2023-08-07T13:54:52;4.90;;;2.30;;
52480;SDS011;38393;52.404;13.532;2023-08-07T13:57:18;6.38;;;2.10;;
52480;SDS011;38393;52.404;13.532;2023-08-07T13:59:43;4.70;;;1.90;;
52480;SDS011;38393;52.404;13.532;2023-08-07T14:02:09;5.50;;;1.90;;
52480;SDS011;38393;52.404;13.532;2023-08-07T14:04:34;9.65;;;2.22;;
52480;SDS011;38393;52.404;13.532;2023-08-07T14:07:01;6.80;;;2.20;;
52480;SDS011;38393;52.404;13.532;2023-08-07T14:09:27;9.45;;;2.10;;
52480;SDS011;38393;52.404;13.532;2023-08-07T14:11:52;6.15;;;2.25;;
52480;SDS011;38393;52.404;13.532;2023-08-07T14:14:18;8.05;;;2.00;;
52480;SDS011;38393;52.404;13.532;2023-08-07T14:16:43;7.07;;;1.80;;
52480;SDS011;38393;52.404;13.532;2023-08-07T14:19:09;6.10;;;1.77;;
52480;SDS011;38393;52.404;13.532;2023-08-07T14:21:34;5.63;;;1.85;;
52480;SDS011;38393;52.404;13.532;2023-08-07T14:24:00;9.85;;;1.90;;
52480;SDS011;38393;52.404;13.532;2023-08-07T14:26:25;4.18;;;1.70;;
52480;SDS011;38393;52.404;13.532;2023-08-07T14:28:51;4.18;;;1.52;;
52480;SDS011;38393;52.404;13.532;2023-08-07T14:31:16;5.07;;;1.60;;
52480;SDS011;38393;52.404;13.532;2023-08-07T14:33:42;4.53;;;1.50;;
52480;SDS011;38393;52.404;13.532;2023-08-07T14:36:07;6.50;;;1.70;;
52480;SDS011;38393;52.404;13.532;2023-08-07T14:38:33;5.63;;;1.80;;